Time;durP1;ratioP1;P1;durP2;ratioP2;P2;SDS_P1;SDS_P2;PMS_P1;PMS_P2;Temp;Humidity;BMP_temperature;BMP_pressure;BME280_temperature;BME280_humidity;BME280_pressure;Samples;Min_cycle;Max_cycle;Signal;HPM_P1;HPM_P2
2021/10/23 00:02:08;;;;;;;2.00;1.35;;;20.40;47.00;;;24.27;31.20;101482.66;5054349;28;20090;-7
2021/10/23 00:04:33;;;;;;;3.45;1.80;;;20.40;46.90;;;24.27;31.14;101477.31;5053990;28;20098;-6
2021/10/23 00:06:59;;;;;;;2.42;1.48;;;20.40;46.90;;;24.25;31.21;101481.91;5053979;28;20055;-7
2021/10/23 00:09:25;;;;;;;2.95;1.95;;;20.40;46.80;;;24.25;31.38;101488.09;5053794;28;20119;-7
2021/10/23 00:11:50;;;;;;;1.52;1.23;;;20.30;46.80;;;24.25;31.19;101480.09;5053903;28;20123;-7
2021/10/23 00:14:16;;;;;;;2.00;1.35;;;20.40;46.80;;;24.23;31.33;101496.22;5053915;28;20053;-7
2021/10/23 00:16:42;;;;;;;2.22;1.70;;;20.40;46.70;;;24.25;31.20;101490.78;5054181;28;20048;-7
2021/10/23 00:19:08;;;;;;;2.58;1.77;;;20.40;46.80;;;24.28;31.23;101503.09;5053749;28;20443;-7
2021/10/23 00:21:34;;;;;;;2.92;1.50;;;20.40;46.70;;;24.24;31.22;101491.75;5052810;28;20131;-6
2021/10/23 00:24:00;;;;;;;2.80;1.45;;;20.40;46.70;;;24.24;31.13;101494.44;5054216;28;20448;-6
2021/10/23 00:26:25;;;;;;;2.40;1.20;;;20.40;46.80;;;24.25;31.43;101489.94;5054003;28;20051;-7
2021/10/23 00:28:51;;;;;;;2.25;1.40;;;20.40;46.80;;;24.26;31.11;101494.31;5053577;28;20057;-6
2021/10/23 00:31:17;;;;;;;1.95;1.35;;;20.40;46.80;;;24.28;31.34;101508.44;5053866;28;20103;-7
2021/10/23 00:33:43;;;;;;;2.20;1.35;;;20.40;46.80;;;24.28;31.24;101505.78;5052960;28;20098;-6
2021/10/23 00:36:10;;;;;;;2.25;1.60;;;20.40;46.80;;;24.27;31.30;101512.06;5053204;28;20123;-7
2021/10/23 00:38:37;;;;;;;2.58;1.42;;;20.40;46.70;;;24.26;31.33;101515.69;5053312;28;20048;-6
2021/10/23 00:41:04;;;;;;;3.03;1.92;;;20.40;46.80;;;24.27;31.29;101520.94;5053493;28;20041;-7
2021/10/23 00:43:30;;;;;;;3.35;1.58;;;20.40;46.70;;;24.26;31.09;101523.69;5053353;28;20051;-7
2021/10/23 00:45:56;;;;;;;3.13;1.70;;;20.40;46.60;;;24.27;31.31;101536.13;5053688;28;20049;-6
2021/10/23 00:48:21;;;;;;;3.08;1.58;;;20.40;46.70;;;24.25;31.09;101532.69;5053381;28;20057;-6
2021/10/23 00:50:48;;;;;;;2.08;1.63;;;20.40;46.80;;;24.25;31.35;101532.69;5053271;28;20059;-7
2021/10/23 00:53:15;;;;;;;2.63;1.30;;;20.30;46.70;;;24.27;31.19;101538.78;5053068;28;20049;-7
2021/10/23 00:55:42;;;;;;;1.90;1.30;;;20.30;46.70;;;24.24;31.30;101537.19;5053108;28;20519;-7
2021/10/23 00:58:09;;;;;;;2.20;1.40;;;20.30;46.90;;;24.23;31.37;101532.78;5053465;28;20057;-7
2021/10/23 01:00:34;;;;;;;3.85;1.65;;;20.30;46.80;;;24.23;31.20;101536.31;5052953;28;20048;-7
2021/10/23 01:03:00;;;;;;;1.42;1.27;;;20.30;46.90;;;24.24;31.10;101539.88;5053123;28;20118;-7
2021/10/23 01:05:26;;;;;;;2.67;1.50;;;20.30;46.90;;;24.25;31.27;101551.41;5053093;28;20041;-6
2021/10/23 01:07:52;;;;;;;2.08;1.50;;;20.30;46.90;;;24.22;31.20;101552.44;5052711;28;20061;-7
2021/10/23 01:10:18;;;;;;;2.00;1.63;;;20.30;46.80;;;24.23;31.38;101551.50;5052265;28;20045;-7
2021/10/23 01:12:44;;;;;;;3.65;1.80;;;20.30;46.80;;;24.25;31.34;101554.06;5053252;28;20945;-7
2021/10/23 01:15:24;;;;;;;1.85;1.30;;;20.30;46.90;;;24.23;31.29;101556.84;5052972;28;20135;-6
2021/10/23 01:17:53;;;;;;;1.63;1.20;;;20.30;46.90;;;24.20;31.44;101565.91;5052873;28;20102;-7
2021/10/23 01:20:22;;;;;;;1.45;1.25;;;20.30;47.00;;;24.21;31.23;101564.94;5052674;28;20103;-7
2021/10/23 01:22:50;;;;;;;2.42;1.50;;;20.30;46.90;;;24.22;31.18;101576.50;5052870;28;20053;-7
2021/10/23 01:25:18;;;;;;;1.77;1.38;;;20.30;46.70;;;24.22;31.27;101581.84;5052794;28;20084;-7
2021/10/23 01:27:45;;;;;;;1.80;1.45;;;20.30;46.80;;;24.22;31.32;101582.72;5052752;28;20045;-7
2021/10/23 01:30:13;;;;;;;2.83;1.60;;;20.30;46.90;;;24.19;31.32;101585.56;5052607;28;20139;-7
2021/10/23 01:32:40;;;;;;;2.55;1.60;;;20.30;46.80;;;24.23;31.09;101604.94;5053066;28;20124;-7
2021/10/23 01:35:07;;;;;;;2.83;1.35;;;20.30;46.90;;;24.21;31.08;101590.81;5052623;28;20056;-7
2021/10/23 01:37:42;;;;;;;2.63;1.60;;;20.20;46.90;;;24.20;31.12;101589.94;5052593;28;20045;-7
2021/10/23 01:40:12;;;;;;;2.45;1.60;;;20.30;46.90;;;24.20;31.23;101589.09;5052840;28;20076;-7
2021/10/23 01:42:38;;;;;;;2.20;1.38;;;20.20;46.90;;;24.19;31.25;101588.25;5052615;28;20043;-7
2021/10/23 01:45:05;;;;;;;2.78;1.30;;;20.30;46.90;;;24.20;31.37;101589.94;5052424;28;20044;-7
2021/10/23 01:47:31;;;;;;;2.25;1.80;;;20.30;46.70;;;24.19;31.27;101590.03;5052852;28;20127;-6
2021/10/23 01:49:57;;;;;;;2.38;1.45;;;20.30;46.70;;;24.21;31.36;101606.88;5052496;28;20053;-6
2021/10/23 01:52:23;;;;;;;2.20;1.30;;;20.20;46.80;;;24.18;31.27;101604.38;5052428;28;20128;-6
2021/10/23 01:54:49;;;;;;;2.97;1.45;;;20.20;46.90;;;24.16;31.22;101612.50;5052709;28;20413;-7
2021/10/23 01:57:14;;;;;;;1.83;1.10;;;20.20;47.10;;;24.16;31.22;101622.34;5052373;28;20135;-7
2021/10/23 01:59:40;;;;;;;2.10;1.30;;;20.20;47.00;;;24.17;31.27;101624.03;5052577;28;20045;-6
2021/10/23 02:02:06;;;;;;;3.10;1.40;;;20.20;46.90;;;24.16;31.18;101631.19;5052516;28;20515;-7
2021/10/23 02:04:32;;;;;;;3.15;1.58;;;20.20;46.80;;;24.16;31.28;101630.34;5052192;28;20227;-7
2021/10/23 02:06:58;;;;;;;1.60;1.35;;;20.30;46.90;;;24.18;31.08;101633.78;5052335;28;20056;-7
2021/10/23 02:09:23;;;;;;;2.20;1.48;;;20.30;46.70;;;24.18;31.21;101631.09;5052204;28;20057;-7
2021/10/23 02:11:49;;;;;;;3.55;1.58;;;20.30;46.70;;;24.17;31.17;101630.25;5052677;28;20049;-6
2021/10/23 02:14:15;;;;;;;2.53;1.70;;;20.30;46.70;;;24.19;31.00;101630.13;5052457;28;20045;-6
2021/10/23 02:16:41;;;;;;;2.45;1.30;;;20.30;46.70;;;24.19;31.23;101632.78;5052223;28;20067;-6
2021/10/23 02:19:07;;;;;;;3.20;1.58;;;20.30;46.70;;;24.19;31.34;101633.69;5051749;28;20147;-6
2021/10/23 02:21:33;;;;;;;2.17;1.55;;;20.30;46.70;;;24.21;30.99;101637.09;5052161;28;20041;-6
2021/10/23 02:23:59;;;;;;;2.63;1.63;;;20.30;46.70;;;24.22;31.11;101637.94;5052318;28;20048;-6
2021/10/23 02:26:24;;;;;;;2.33;1.65;;;20.30;46.70;;;24.20;31.23;101646.06;5052015;28;20052;-6
2021/10/23 02:28:50;;;;;;;1.85;1.42;;;20.30;46.70;;;24.19;31.05;101647.03;5052137;28;20048;-7
2021/10/23 02:31:16;;;;;;;2.20;1.60;;;20.30;46.60;;;24.21;31.23;101653.13;5051944;28;20398;-6
2021/10/23 02:33:42;;;;;;;2.42;1.60;;;20.30;46.60;;;24.20;30.91;101639.88;5051919;28;20056;-7
2021/10/23 02:36:08;;;;;;;1.73;1.40;;;20.30;46.70;;;24.22;31.01;101654.88;5050932;28;20488;-6
2021/10/23 02:38:34;;;;;;;2.65;1.40;;;20.30;46.70;;;24.21;31.32;101657.63;5051581;28;20097;-7
2021/10/23 02:41:02;;;;;;;2.83;1.50;;;20.30;46.70;;;24.19;31.15;101652.38;5051843;28;20048;-7
2021/10/23 02:43:28;;;;;;;2.80;1.48;;;20.30;46.70;;;24.18;31.12;101658.66;5051798;28;20049;-6
2021/10/23 02:45:54;;;;;;;1.65;1.30;;;20.30;46.60;;;24.20;31.22;101663.91;5051582;28;20424;-7
2021/10/23 02:48:20;;;;;;;2.75;1.45;;;20.30;46.50;;;24.19;31.08;101667.53;5051428;28;20405;-6
2021/10/23 02:50:46;;;;;;;2.17;1.70;;;20.30;46.50;;;24.22;31.08;101678.03;5051580;28;20512;-6
2021/10/23 02:53:11;;;;;;;2.35;1.58;;;20.30;46.50;;;24.22;31.02;101675.38;5051591;28;20049;-6
2021/10/23 02:55:37;;;;;;;2.67;1.40;;;20.30;46.50;;;24.19;31.18;101673.75;5051994;28;20049;-7
2021/10/23 02:58:03;;;;;;;2.08;1.20;;;20.30;46.50;;;24.21;31.20;101668.31;5053649;28;20040;-7
2021/10/23 03:00:29;;;;;;;2.15;1.90;;;20.30;46.60;;;24.19;31.03;101680.91;5054576;28;20052;-7
2021/10/23 03:02:56;;;;;;;2.72;1.50;;;20.30;46.70;;;24.20;31.12;101679.94;5055319;28;20048;-7
2021/10/23 03:05:22;;;;;;;1.73;1.10;;;20.20;46.60;;;24.19;31.23;101684.44;5055479;28;20504;-6
2021/10/23 03:07:48;;;;;;;2.58;1.58;;;20.30;46.70;;;24.21;31.29;101687.88;5054878;28;20056;-7
2021/10/23 03:10:14;;;;;;;2.63;1.27;;;20.20;46.70;;;24.19;31.13;101686.25;5054872;28;20051;-7
2021/10/23 03:12:40;;;;;;;2.58;1.50;;;20.20;46.70;;;24.17;31.11;101686.38;5055187;28;20044;-7
2021/10/23 03:15:06;;;;;;;2.10;1.38;;;20.30;46.70;;;24.20;30.98;101683.47;5055066;28;20099;-7
2021/10/23 03:17:32;;;;;;;2.25;1.15;;;20.30;46.70;;;24.22;31.04;101683.38;5055283;28;20135;-7
2021/10/23 03:19:58;;;;;;;1.70;1.17;;;20.20;46.70;;;24.21;31.21;101681.69;5054646;28;20052;-7
2021/10/23 03:22:25;;;;;;;2.22;1.58;;;20.30;46.70;;;24.20;30.96;101683.47;5054710;28;20041;-7
2021/10/23 03:24:51;;;;;;;2.03;1.40;;;20.20;46.70;;;24.20;31.13;101677.28;5054617;28;20411;-7
2021/10/23 03:27:21;;;;;;;2.30;1.40;;;20.20;46.70;;;24.18;31.02;101673.84;5054621;28;20123;-7
2021/10/23 03:29:48;;;;;;;3.30;1.60;;;20.20;46.80;;;24.18;30.89;101677.38;5054507;28;20485;-7
2021/10/23 03:32:14;;;;;;;1.50;1.30;;;20.20;47.30;;;24.18;31.27;101685.38;5054609;28;20053;-7
2021/10/23 03:34:39;;;;;;;3.03;1.27;;;20.20;46.70;;;24.15;31.28;101682.91;5050752;28;20442;-6
2021/10/23 03:37:05;;;;;;;1.92;1.40;;;20.20;46.80;;;24.16;31.13;101689.13;5054815;28;20456;-7
2021/10/23 03:39:31;;;;;;;2.40;1.73;;;20.20;46.70;;;24.15;31.22;101677.56;5054106;28;20443;-7
2021/10/23 03:41:57;;;;;;;2.28;1.13;;;20.30;46.70;;;24.17;30.98;101686.38;5054473;28;20060;-7
2021/10/23 03:44:23;;;;;;;2.65;1.55;;;20.20;46.60;;;24.17;31.07;101686.38;5054286;28;20045;-6
2021/10/23 03:46:49;;;;;;;2.28;1.35;;;20.30;46.70;;;24.20;31.26;101690.63;5054909;28;20056;-7
2021/10/23 03:49:16;;;;;;;3.10;1.50;;;20.30;46.50;;;24.18;31.13;101684.53;5054161;28;20138;-7
2021/10/23 03:51:42;;;;;;;1.83;1.15;;;20.40;46.30;;;24.18;31.20;101689.88;5054557;28;20044;-7
2021/10/23 03:54:07;;;;;;;2.33;1.38;;;20.40;46.10;;;24.19;31.14;101699.59;5054182;28;20053;-6
2021/10/23 03:56:33;;;;;;;2.25;1.42;;;20.50;46.10;;;24.23;31.08;101706.50;5054179;28;20079;-7
2021/10/23 03:58:59;;;;;;;3.20;1.67;;;20.50;46.00;;;24.23;31.21;101711.84;5054224;28;20417;-7
2021/10/23 04:01:24;;;;;;;4.07;1.70;;;20.50;46.00;;;24.23;30.74;101714.50;5054026;28;20077;-7
2021/10/23 04:03:51;;;;;;;2.53;1.50;;;20.50;45.90;;;24.22;30.95;101707.44;5054046;28;20424;-7
2021/10/23 04:06:17;;;;;;;1.70;1.33;;;20.60;45.90;;;24.25;31.04;101715.25;5054359;28;20080;-7
2021/10/23 04:08:43;;;;;;;2.40;1.23;;;20.60;45.90;;;24.24;30.93;101718.91;5053847;28;20504;-6
2021/10/23 04:11:09;;;;;;;1.77;1.30;;;20.60;45.80;;;24.25;30.82;101719.75;5053963;28;20061;-7
2021/10/23 04:13:35;;;;;;;2.47;1.50;;;20.60;45.80;;;24.24;30.82;101726.91;5053786;28;20071;-6
2021/10/23 04:16:03;;;;;;;1.77;1.38;;;20.60;45.80;;;24.25;30.93;101730.44;5053946;28;20056;-6
2021/10/23 04:18:33;;;;;;;2.55;1.40;;;20.60;45.80;;;24.23;31.02;101723.38;5051856;28;20063;-6
2021/10/23 04:20:59;;;;;;;1.83;1.20;;;20.60;45.90;;;24.27;30.89;101731.19;5054045;28;20063;-7
2021/10/23 04:23:25;;;;;;;2.67;1.40;;;20.60;45.90;;;24.26;31.02;101735.69;5053831;28;20053;-6
2021/10/23 04:25:50;;;;;;;1.67;1.30;;;20.50;46.00;;;24.27;30.98;101748.09;5053629;28;20057;-7
2021/10/23 04:28:16;;;;;;;2.60;1.20;;;20.60;45.90;;;24.30;31.10;101737.22;5053514;28;20057;-7
2021/10/23 04:30:42;;;;;;;1.88;1.48;;;20.60;45.80;;;24.29;31.07;101748.00;5053411;28;20057;-7
2021/10/23 04:33:07;;;;;;;1.67;1.23;;;20.60;45.90;;;24.29;31.06;101751.53;5053502;28;20048;-6
2021/10/23 04:35:33;;;;;;;3.60;1.50;;;20.60;45.90;;;24.30;30.83;101750.56;5054065;28;20182;-7
2021/10/23 04:37:59;;;;;;;2.00;1.50;;;20.50;46.00;;;24.28;30.90;101748.97;5053242;28;20068;-6
2021/10/23 04:40:25;;;;;;;2.90;1.23;;;20.50;46.10;;;24.29;31.07;101762.25;5053665;28;20122;-7
2021/10/23 04:42:50;;;;;;;1.83;1.20;;;20.50;46.10;;;24.31;30.76;101751.47;5053291;28;20055;-7
2021/10/23 04:45:16;;;;;;;3.63;1.30;;;20.50;46.00;;;24.29;31.05;101748.88;5053374;28;20057;-7
2021/10/23 04:47:42;;;;;;;1.50;1.10;;;20.60;45.90;;;24.30;30.74;101755.06;5053148;28;20060;-6
2021/10/23 04:50:08;;;;;;;3.17;1.20;;;20.60;45.90;;;24.33;31.05;101757.56;5053838;28;20049;-6
2021/10/23 04:52:33;;;;;;;2.50;1.60;;;20.60;45.90;;;24.32;30.89;101755.81;5053269;28;20052;-6
2021/10/23 04:54:59;;;;;;;2.20;1.38;;;20.60;45.90;;;24.33;30.87;101768.25;5053269;28;20456;-6
2021/10/23 04:57:25;;;;;;;1.27;0.95;;;20.50;46.00;;;24.33;30.98;101754.88;5053194;28;20492;-7
2021/10/23 04:59:51;;;;;;;3.13;1.10;;;20.50;46.00;;;24.33;30.97;101747.72;5053045;28;20045;-7
2021/10/23 05:02:16;;;;;;;1.70;1.20;;;20.50;46.00;;;24.36;30.72;101754.69;5053654;28;20048;-7
2021/10/23 05:04:42;;;;;;;1.92;1.23;;;20.50;46.00;;;24.33;30.94;101754.88;5053099;28;20056;-6
2021/10/23 05:07:08;;;;;;;1.98;1.30;;;20.50;46.00;;;24.32;30.97;101745.97;5052979;28;20123;-6
2021/10/23 05:09:34;;;;;;;3.50;1.42;;;20.50;46.00;;;24.33;30.74;101761.06;5053041;28;20065;-7
2021/10/23 05:11:59;;;;;;;1.60;1.27;;;20.50;46.00;;;24.34;30.83;101768.16;5050844;28;20047;-7
2021/10/23 05:14:25;;;;;;;2.10;1.33;;;20.60;45.90;;;24.38;30.59;101771.50;5053450;28;20067;-6
2021/10/23 05:16:51;;;;;;;2.15;1.27;;;20.60;45.90;;;24.33;30.89;101766.44;5053346;28;20045;-7
2021/10/23 05:19:17;;;;;;;1.40;1.13;;;20.50;46.00;;;24.37;30.81;101775.09;5052708;28;20057;-7
2021/10/23 05:21:42;;;;;;;2.00;1.10;;;20.50;46.00;;;24.36;30.71;101787.63;5052200;28;20123;-6
2021/10/23 05:24:08;;;;;;;2.00;1.10;;;20.60;46.10;;;24.35;30.96;101793.91;5053363;28;20076;-7
2021/10/23 05:26:34;;;;;;;3.45;1.42;;;20.50;46.00;;;24.36;30.62;101790.28;5052808;28;20045;-7
2021/10/23 05:29:00;;;;;;;2.42;1.52;;;20.60;45.90;;;24.33;30.73;101784.28;5053069;28;20060;-7
2021/10/23 05:31:25;;;;;;;3.40;1.42;;;20.60;45.90;;;24.38;30.96;101801.75;5053321;28;20053;-7
2021/10/23 05:33:51;;;;;;;2.53;1.30;;;20.60;45.90;;;24.35;30.94;101801.94;5052521;28;20056;-7
2021/10/23 05:36:17;;;;;;;2.20;1.02;;;20.60;45.90;;;24.38;30.93;101815.09;5052899;28;20051;-6
2021/10/23 05:38:43;;;;;;;2.55;1.10;;;20.60;45.90;;;24.37;30.91;101815.19;5052648;28;20045;-7
2021/10/23 05:41:08;;;;;;;2.47;1.10;;;20.60;45.90;;;24.37;30.70;101810.75;5052565;28;20053;-6
2021/10/23 05:43:34;;;;;;;2.22;1.45;;;20.60;45.70;;;24.35;30.85;101809.09;5052512;28;20072;-7
2021/10/23 05:46:01;;;;;;;1.60;1.00;;;20.60;45.80;;;24.37;30.81;101813.41;5052898;28;20091;-7
2021/10/23 05:48:27;;;;;;;1.77;1.17;;;20.60;45.90;;;24.34;30.71;101807.38;5052719;28;20084;-7
2021/10/23 05:50:52;;;;;;;2.30;1.23;;;20.60;45.90;;;24.37;30.68;101821.44;5052269;28;20060;-7
2021/10/23 05:53:18;;;;;;;1.25;1.15;;;20.60;46.10;;;24.36;30.72;101818.84;5052285;28;20045;-6
2021/10/23 05:55:44;;;;;;;2.28;1.33;;;20.60;45.70;;;24.34;30.74;101815.38;5052277;28;20057;-7
2021/10/23 05:58:09;;;;;;;2.22;1.17;;;20.60;45.80;;;24.37;30.73;101824.09;5052592;28;20053;-7
2021/10/23 06:00:36;;;;;;;2.08;1.10;;;20.60;45.80;;;24.33;30.72;101827.91;5052131;28;20135;-7
2021/10/23 06:03:03;;;;;;;1.50;1.10;;;20.50;45.90;;;24.33;30.92;101838.59;5052346;28;20408;-6
2021/10/23 06:05:29;;;;;;;2.15;1.02;;;20.60;45.80;;;24.36;30.65;101851.78;5051291;28;20049;-7
2021/10/23 06:07:55;;;;;;;1.98;1.00;;;20.60;45.70;;;24.37;30.61;101858.84;5052154;28;20049;-7
2021/10/23 06:10:22;;;;;;;1.42;1.08;;;20.50;45.90;;;24.34;30.63;101855.47;5052333;28;20061;-7
2021/10/23 06:12:48;;;;;;;1.75;1.20;;;20.50;45.90;;;24.34;30.62;101843.00;5052482;28;20095;-6
2021/10/23 06:15:13;;;;;;;1.83;1.05;;;20.50;45.90;;;24.35;30.56;101852.72;5050162;28;20043;-7
2021/10/23 06:17:40;;;;;;;1.70;1.17;;;20.50;45.90;;;24.37;30.78;101861.53;5052139;28;20064;-7
2021/10/23 06:20:07;;;;;;;1.58;1.20;;;20.50;45.80;;;24.33;30.73;101857.28;5050515;28;20088;-7
2021/10/23 06:22:33;;;;;;;1.83;1.20;;;20.50;45.90;;;24.37;30.83;101872.22;5051961;28;20053;-7
2021/10/23 06:24:58;;;;;;;2.00;1.27;;;20.60;45.80;;;24.39;30.83;101880.13;5052358;28;20056;-7
2021/10/23 06:27:25;;;;;;;1.55;1.25;;;20.60;45.80;;;24.40;30.77;101890.72;5051972;28;20049;-7
2021/10/23 06:29:50;;;;;;;3.92;1.38;;;20.60;45.60;;;24.40;30.83;101880.03;5052015;28;20057;-7
2021/10/23 06:32:16;;;;;;;2.33;1.30;;;20.60;45.70;;;24.40;30.82;101885.38;5052389;28;20044;-7
2021/10/23 06:34:42;;;;;;;1.50;1.20;;;20.60;45.60;;;24.47;30.79;101891.19;5055472;28;20045;-6
2021/10/23 06:37:11;;;;;;;2.58;1.40;;;20.70;45.60;;;24.48;30.55;101892.09;5055669;28;20546;-7
2021/10/23 06:39:37;;;;;;;2.83;1.35;;;20.70;45.50;;;24.50;30.76;101901.72;5055266;28;20076;-7
2021/10/23 06:42:03;;;;;;;2.45;1.42;;;20.70;45.50;;;24.51;30.64;101910.63;5055362;28;20053;-6
2021/10/23 06:44:29;;;;;;;2.70;1.48;;;20.70;45.40;;;24.53;30.45;101912.22;5055331;28;20049;-7
2021/10/23 06:46:55;;;;;;;2.55;1.10;;;20.80;45.40;;;24.59;30.57;101914.56;5055284;28;20099;-7
2021/10/23 06:49:20;;;;;;;3.20;1.20;;;20.80;45.20;;;24.58;30.59;101912.84;5055158;28;20056;-7
2021/10/23 06:51:46;;;;;;;2.25;1.38;;;20.80;45.20;;;24.60;30.35;101921.63;5055455;28;20060;-7
2021/10/23 06:54:12;;;;;;;2.72;1.00;;;20.80;45.30;;;24.61;30.34;101914.47;5055121;28;20044;-7
2021/10/23 06:56:38;;;;;;;2.80;1.08;;;20.80;45.40;;;24.59;30.27;101927.94;5055114;28;20052;-7
2021/10/23 06:59:04;;;;;;;1.65;1.10;;;20.70;45.40;;;24.59;30.52;101940.44;5054953;28;20547;-7
2021/10/23 07:01:30;;;;;;;1.73;1.10;;;20.70;45.50;;;24.61;30.28;101949.25;5055080;28;20045;-6
2021/10/23 07:03:56;;;;;;;2.05;1.10;;;20.70;46.00;;;24.59;30.29;101951.13;5054314;28;20045;-6
2021/10/23 07:06:22;;;;;;;2.55;1.25;;;20.60;45.50;;;24.57;30.47;101959.28;5054916;28;20400;-7
2021/10/23 07:08:47;;;;;;;2.28;1.10;;;20.60;45.50;;;24.57;30.50;101969.09;5054751;28;20048;-7
2021/10/23 07:11:15;;;;;;;2.75;1.40;;;20.70;45.50;;;24.57;30.30;101969.09;5054941;28;20053;-7
2021/10/23 07:13:42;;;;;;;2.17;1.20;;;20.70;45.50;;;24.53;30.31;101971.06;5055207;28;20052;-7
2021/10/23 07:16:09;;;;;;;2.88;1.20;;;20.70;45.30;;;24.54;30.51;101979.94;5054860;28;20090;-7
2021/10/23 07:18:35;;;;;;;1.85;1.10;;;20.70;45.30;;;24.54;30.40;101990.63;5054716;28;20052;-6
2021/10/23 07:21:03;;;;;;;2.55;1.15;;;20.70;45.50;;;24.54;30.53;101994.19;5054840;28;20045;-7
2021/10/23 07:23:29;;;;;;;2.33;1.27;;;20.70;45.50;;;24.54;30.38;101994.19;5054765;28;20489;-7
2021/10/23 07:25:56;;;;;;;1.65;1.10;;;20.60;45.50;;;24.54;30.51;102004.00;5055055;28;20091;-7
2021/10/23 07:28:22;;;;;;;2.30;1.27;;;20.60;45.60;;;24.52;30.34;102009.44;5054383;28;20405;-7
2021/10/23 07:30:47;;;;;;;2.15;1.20;;;20.60;45.50;;;24.54;30.55;102020.91;5054456;28;20083;-7
2021/10/23 07:33:13;;;;;;;2.15;1.30;;;20.60;45.50;;;24.53;30.33;102023.69;5054895;28;20053;-7
2021/10/23 07:35:39;;;;;;;2.97;1.25;;;20.60;45.50;;;24.53;30.32;102027.19;5054305;28;20060;-7
2021/10/23 07:38:06;;;;;;;2.67;1.10;;;20.60;45.50;;;24.55;30.55;102030.66;5054363;28;20056;-7
2021/10/23 07:40:31;;;;;;;2.83;1.35;;;20.60;45.50;;;24.56;30.43;102034.22;5053194;28;20056;-7
2021/10/23 07:42:57;;;;;;;3.28;1.25;;;20.70;45.40;;;24.60;30.38;102030.41;5054688;28;20076;-7
2021/10/23 07:45:23;;;;;;;2.95;1.40;;;20.80;45.30;;;24.63;30.33;102040.94;5054293;28;20060;-7
2021/10/23 07:47:49;;;;;;;2.95;1.38;;;20.80;45.30;;;24.63;30.23;102035.56;5054368;28;20048;-7
2021/10/23 07:50:14;;;;;;;3.05;1.10;;;20.80;45.20;;;24.65;30.54;102041.69;5054627;28;20103;-7
2021/10/23 07:52:41;;;;;;;2.75;1.13;;;20.80;45.10;;;24.67;30.32;102042.47;5054581;28;20052;-7
2021/10/23 07:55:08;;;;;;;2.72;1.42;;;20.90;45.00;;;24.71;30.29;102057.38;5054191;28;20136;-7
2021/10/23 07:57:38;;;;;;;2.78;1.35;;;20.90;45.10;;;24.70;30.23;102071.69;5054210;28;20088;-7
2021/10/23 08:00:07;;;;;;;3.50;1.38;;;20.90;45.10;;;24.72;30.12;102077.81;5054019;28;20053;-7
2021/10/23 08:03:03;;;;;;;3.95;1.52;;;20.80;45.10;;;24.72;30.29;102067.13;5052485;28;20053;-6
2021/10/23 08:05:36;;;;;;;1.77;1.02;;;20.80;45.10;;;24.75;30.04;102072.28;5054364;28;20123;-7
2021/10/23 08:08:04;;;;;;;2.97;1.30;;;20.80;45.10;;;24.70;30.22;102077.03;5054164;28;20076;-6
2021/10/23 08:10:32;;;;;;;5.60;1.30;;;20.80;45.10;;;24.69;30.12;102083.38;5054216;28;20060;-7
2021/10/23 08:12:59;;;;;;;4.72;1.63;;;20.80;45.20;;;24.70;30.27;102086.91;5053850;28;20131;-7
2021/10/23 08:15:26;;;;;;;3.10;1.60;;;20.80;45.10;;;24.71;30.30;102093.97;5054511;28;20049;-6
2021/10/23 08:17:56;;;;;;;4.60;1.63;;;20.80;45.00;;;24.70;30.27;102081.53;5050417;28;20409;-6
2021/10/23 08:20:22;;;;;;;10.13;1.70;;;20.80;45.00;;;24.73;30.25;102100.09;5053713;28;20527;-6
2021/10/23 08:22:48;;;;;;;4.65;1.70;;;20.80;45.00;;;24.68;30.23;102095.00;5053780;28;20053;-6
2021/10/23 08:25:14;;;;;;;5.40;1.88;;;20.80;45.00;;;24.69;30.25;102095.84;5053979;28;20051;-7
2021/10/23 08:27:44;;;;;;;5.05;1.60;;;20.80;45.10;;;24.68;30.26;102104.84;5053790;28;20049;-6
2021/10/23 08:30:14;;;;;;;4.75;2.05;;;20.80;45.10;;;24.66;30.30;102112.06;5053982;28;20489;-6
2021/10/23 08:32:42;;;;;;;9.52;2.15;;;20.80;45.00;;;24.70;29.99;102119.84;5053954;28;20051;-6
2021/10/23 08:35:09;;;;;;;12.77;2.95;;;20.80;45.10;;;24.68;30.09;102129.78;5053658;28;20052;-7
2021/10/23 08:37:36;;;;;;;10.82;2.28;;;20.80;45.00;;;24.68;30.08;102131.59;5053216;28;20049;-7
2021/10/23 08:40:05;;;;;;;8.43;2.42;;;20.80;45.20;;;24.70;30.25;102135.88;5054002;28;20041;-7
2021/10/23 08:42:32;;;;;;;8.60;2.55;;;20.80;45.10;;;24.68;30.38;102126.25;5053256;28;20041;-7
2021/10/23 08:45:05;;;;;;;13.32;2.83;;;20.80;45.10;;;24.69;30.22;102134.19;5053526;28;20060;-6
2021/10/23 08:47:31;;;;;;;11.60;3.28;;;20.80;45.00;;;24.72;30.11;102133.13;5053381;28;20044;-6
2021/10/23 08:49:58;;;;;;;15.80;3.15;;;20.90;45.10;;;24.69;30.13;102134.19;5052139;28;20535;-6
2021/10/23 08:52:27;;;;;;;10.98;3.13;;;20.90;45.10;;;24.70;30.17;102137.72;5052039;28;20048;-7
2021/10/23 08:54:54;;;;;;;11.85;3.72;;;20.80;45.00;;;24.72;30.01;102139.31;5053160;28;20056;-7
2021/10/23 08:57:25;;;;;;;20.92;4.35;;;20.90;45.10;;;24.71;30.23;102144.78;5052931;28;20052;-7
2021/10/23 08:59:52;;;;;;;23.70;3.10;;;20.80;45.10;;;24.75;29.97;102157.03;5053274;28;20073;-7
2021/10/23 09:02:20;;;;;;;21.35;3.97;;;20.80;45.00;;;24.72;29.74;102162.53;5053362;28;20045;-7
2021/10/23 09:04:49;;;;;;;14.43;3.95;;;20.80;45.20;;;24.74;29.95;102169.56;5053134;28;20075;-7
2021/10/23 09:07:16;;;;;;;15.68;3.90;;;20.80;45.10;;;24.72;29.99;102165.22;5053116;28;20481;-7
2021/10/23 09:10:05;;;;;;;24.52;5.70;;;20.80;45.10;;;24.74;29.98;102179.38;5053161;28;20049;-7
2021/10/23 09:12:34;;;;;;;20.55;5.18;;;20.80;45.10;;;24.72;29.97;102178.59;5053033;28;20052;-6
2021/10/23 09:15:17;;;;;;;16.90;4.57;;;20.80;45.00;;;24.74;30.19;102176.69;5052928;28;20436;-6
2021/10/23 09:17:50;;;;;;;12.70;3.72;;;20.80;45.00;;;24.74;29.99;102179.38;5052902;28;20484;-7
2021/10/23 09:20:17;;;;;;;31.92;5.80;;;20.80;45.10;;;24.72;30.01;102178.59;5052924;28;20540;-7
2021/10/23 09:22:45;;;;;;;27.98;5.82;;;20.80;45.00;;;24.74;30.22;102185.59;5053104;28;20056;-7
2021/10/23 09:25:17;;;;;;;26.98;5.75;;;20.80;45.10;;;24.72;29.91;102176.78;5053141;28;20041;-6
2021/10/23 09:28:01;;;;;;;26.83;5.88;;;20.80;45.10;;;24.76;30.17;102182.84;5052721;28;20057;-7
2021/10/23 09:30:43;;;;;;;29.23;5.90;;;20.80;45.00;;;24.75;30.00;102189.13;5052809;28;20091;-6
2021/10/23 09:33:25;;;;;;;39.88;6.75;;;20.90;44.90;;;24.78;29.91;102187.13;5052972;28;20413;-6
2021/10/23 09:35:55;;;;;;;26.20;4.85;;;20.90;44.90;;;24.78;29.96;102183.59;5052856;28;20107;-6
2021/10/23 09:38:34;;;;;;;37.65;7.00;;;20.90;44.80;;;24.80;30.07;102189.72;5052521;28;20383;-6
2021/10/23 09:41:18;;;;;;;38.75;7.55;;;21.00;44.70;;;24.78;29.97;102176.44;5050688;28;20128;-9
2021/10/23 09:43:46;;;;;;;33.33;7.25;;;21.00;44.70;;;24.81;29.88;102180.75;5052691;28;20088;-9
2021/10/23 09:46:12;;;;;;;29.15;6.78;;;21.00;44.60;;;24.84;29.73;102188.63;5052549;28;20040;-9
2021/10/23 09:48:41;;;;;;;36.72;7.22;;;21.00;44.70;;;24.86;29.90;102191.16;5052305;28;20048;-8
2021/10/23 09:51:29;;;;;;;31.45;8.90;;;21.00;44.80;;;24.83;29.95;102184.19;5052475;28;20053;-9
2021/10/23 09:54:00;;;;;;;36.15;8.10;;;21.00;44.80;;;24.83;29.96;102186.88;5052531;28;20037;-7
2021/10/23 09:56:33;;;;;;;33.05;7.88;;;21.00;44.70;;;24.85;29.93;102194.81;5052123;28;20067;-7
2021/10/23 09:59:02;;;;;;;37.38;8.48;;;21.00;44.80;;;24.87;30.12;102203.59;5052301;28;20108;-7
2021/10/23 10:01:32;;;;;;;35.70;9.05;;;20.90;44.70;;;24.81;29.83;102188.78;5052362;28;20064;-6
2021/10/23 10:04:00;;;;;;;41.65;8.88;;;20.90;44.80;;;24.85;29.81;102194.81;5052278;28;20052;-7
2021/10/23 10:06:29;;;;;;;41.70;9.88;;;20.90;44.70;;;24.86;29.93;102197.41;5051689;28;20045;-7
2021/10/23 10:08:56;;;;;;;39.80;9.30;;;21.00;44.80;;;24.84;29.90;102196.63;5055883;28;20102;-7
2021/10/23 10:11:22;;;;;;;38.17;9.10;;;21.00;44.80;;;24.86;29.89;102204.53;5056139;28;20060;-7
2021/10/23 10:13:50;;;;;;;36.15;9.90;;;21.00;45.30;;;24.87;29.77;102200.94;5055784;28;20076;-7
2021/10/23 10:16:16;;;;;;;47.58;9.68;;;21.00;44.60;;;24.87;29.86;102201.78;5055342;28;20053;-7
2021/10/23 10:18:45;;;;;;;44.72;9.70;;;21.10;44.60;;;24.88;29.81;102202.66;5055537;28;20497;-6